createdAt,value
2022-12-18T00:04:27.065Z,-3.25
2022-12-18T00:09:31.373Z,-3.31
2022-12-18T00:14:44.466Z,-3.32
2022-12-18T00:19:47.894Z,-3.26
2022-12-18T00:24:51.833Z,-3.16
2022-12-18T00:29:55.428Z,-3.06
2022-12-18T00:34:59.157Z,-3.05
2022-12-18T00:40:04.308Z,-3.17
2022-12-18T00:45:12.617Z,-3.29
2022-12-18T00:50:17.296Z,-3.38
2022-12-18T00:55:21.116Z,-3.36
2022-12-18T01:00:25.140Z,-3.37
2022-12-18T01:05:29.785Z,-3.52
2022-12-18T01:10:33.511Z,-3.64
2022-12-18T01:15:37.369Z,-3.67
2022-12-18T01:20:41.470Z,-3.74
2022-12-18T01:25:45.289Z,-3.75
2022-12-18T01:30:48.811Z,-4.04
2022-12-18T01:35:52.542Z,-4.10
2022-12-18T01:41:01.670Z,-4.12
2022-12-18T01:46:05.563Z,-3.99
2022-12-18T01:51:12.732Z,-3.96
2022-12-18T02:01:32.255Z,-4.07
2022-12-18T02:06:42.818Z,-4.16
2022-12-18T02:12:02.104Z,-4.03
2022-12-18T02:17:21.502Z,-4.09
2022-12-18T02:22:56.763Z,-4.40
2022-12-18T02:28:07.849Z,-4.43
2022-12-18T02:33:14.561Z,-4.42
2022-12-18T02:38:19.260Z,-4.33
2022-12-18T02:43:23.231Z,-4.46
2022-12-18T02:48:36.435Z,-4.52
2022-12-18T02:54:02.434Z,-4.48
2022-12-18T02:59:16.740Z,-4.64
2022-12-18T03:04:55.650Z,-4.77
2022-12-18T03:10:01.760Z,-4.62
2022-12-18T03:15:28.781Z,-4.80
2022-12-18T03:20:36.660Z,-4.90
2022-12-18T03:25:45.645Z,-4.88
2022-12-18T03:30:57.401Z,-4.89
2022-12-18T03:36:01.951Z,-4.92
2022-12-18T03:41:21.209Z,-5.01
2022-12-18T03:46:39.653Z,-5.19
2022-12-18T03:52:13.808Z,-5.15
2022-12-18T03:57:23.144Z,-4.97
2022-12-18T04:02:27.264Z,-5.02
2022-12-18T04:07:32.159Z,-5.19
2022-12-18T04:12:35.755Z,-5.22
2022-12-18T04:17:49.285Z,-5.17
2022-12-18T04:22:54.761Z,-5.28
2022-12-18T04:27:58.584Z,-5.41
2022-12-18T04:33:02.426Z,-5.39
2022-12-18T04:38:09.635Z,-5.47
2022-12-18T04:43:13.628Z,-5.42
2022-12-18T04:48:17.673Z,-5.29
2022-12-18T04:53:21.397Z,-5.16
2022-12-18T04:58:25.121Z,-5.09
2022-12-18T05:03:29.096Z,-4.97
2022-12-18T05:08:34.738Z,-4.84
2022-12-18T05:13:39.688Z,-4.82
2022-12-18T05:18:43.836Z,-4.54
2022-12-18T05:23:47.725Z,-4.36
2022-12-18T05:28:51.354Z,-4.27
2022-12-18T05:33:55.481Z,-4.23
2022-12-18T05:38:59.310Z,-4.24
2022-12-18T05:44:03.261Z,-4.16
2022-12-18T05:49:07.280Z,-4.05
2022-12-18T05:54:11.061Z,-3.98
2022-12-18T05:59:14.912Z,-3.91
2022-12-18T06:04:18.750Z,-3.84
2022-12-18T06:14:56.703Z,-3.56
2022-12-18T06:20:02.301Z,-3.47
2022-12-18T06:25:07.405Z,-3.39
2022-12-18T06:30:13.637Z,-3.39
2022-12-18T06:35:18.155Z,-3.35
2022-12-18T06:40:23.004Z,-3.35
2022-12-18T06:45:28.312Z,-3.32
2022-12-18T06:50:32.599Z,-3.28
2022-12-18T06:55:36.396Z,-3.26
2022-12-18T07:00:40.279Z,-3.27
2022-12-18T07:05:44.056Z,-3.15
2022-12-18T07:10:55.795Z,-3.12
2022-12-18T07:16:22.611Z,-3.21
2022-12-18T07:21:29.128Z,-3.17
2022-12-18T07:26:33.263Z,-3.12
2022-12-18T07:31:37.135Z,-2.98
2022-12-18T07:36:41.296Z,-2.88
2022-12-18T07:42:05.403Z,-2.88
2022-12-18T07:47:12.189Z,-2.87
2022-12-18T07:52:19.263Z,-2.81
2022-12-18T07:57:49.579Z,-2.66
2022-12-18T08:02:49.666Z,-2.63
2022-12-18T08:07:54.819Z,-2.55
2022-12-18T08:13:03.121Z,-2.47
2022-12-18T08:18:13.893Z,-2.41
2022-12-18T08:23:18.515Z,-2.39
2022-12-18T08:28:22.767Z,-2.04
2022-12-18T08:33:27.521Z,-1.45
2022-12-18T08:38:32.963Z,-0.09
2022-12-18T08:43:55.842Z,-0.03
2022-12-18T08:48:59.862Z,-0.16
2022-12-18T08:54:06.351Z,-0.17
2022-12-18T08:59:15.906Z,-0.59
2022-12-18T09:04:24.064Z,-0.97
2022-12-18T09:09:28.382Z,-1.25
2022-12-18T09:14:32.301Z,-1.51
2022-12-18T09:19:36.339Z,-1.75
2022-12-18T09:24:40.770Z,-1.72
2022-12-18T09:29:44.694Z,-1.58
2022-12-18T09:34:55.245Z,-1.67
2022-12-18T09:39:59.826Z,-1.71
2022-12-18T09:45:05.475Z,-1.62
2022-12-18T09:50:40.709Z,-1.46
2022-12-18T09:55:49.093Z,-0.88
2022-12-18T10:00:55.320Z,-0.04
2022-12-18T10:06:40.417Z,1.80
2022-12-18T10:12:07.941Z,5.47
2022-12-18T10:17:24.440Z,6.94
2022-12-18T10:22:42.471Z,8.51
2022-12-18T10:27:47.550Z,8.18
2022-12-18T10:32:53.044Z,5.75
2022-12-18T10:38:16.279Z,3.08
2022-12-18T10:43:31.968Z,4.43
2022-12-18T10:48:58.431Z,5.18
2022-12-18T10:54:32.453Z,6.38
2022-12-18T10:59:57.126Z,7.76
2022-12-18T11:05:02.169Z,8.23
2022-12-18T11:10:18.537Z,8.24
2022-12-18T11:15:31.938Z,8.54
2022-12-18T11:20:40.405Z,8.92
2022-12-18T11:26:06.533Z,9.10
2022-12-18T11:31:25.601Z,9.46
2022-12-18T11:36:36.175Z,9.54
2022-12-18T11:42:11.596Z,9.77
2022-12-18T11:47:40.064Z,10.30
2022-12-18T11:52:44.192Z,10.28
2022-12-18T11:58:31.901Z,10.29
2022-12-18T12:04:04.957Z,10.29
2022-12-18T12:09:50.746Z,10.20
2022-12-18T12:15:34.528Z,10.09
2022-12-18T12:21:07.740Z,10.71
2022-12-18T12:26:49.898Z,10.71
2022-12-18T12:32:33.083Z,9.78
2022-12-18T12:37:56.369Z,7.56
2022-12-18T12:43:14.356Z,5.82
2022-12-18T12:48:36.770Z,4.44
2022-12-18T12:53:43.033Z,3.03
2022-12-18T12:59:25.025Z,2.05
2022-12-18T13:05:19.354Z,1.84
2022-12-18T13:10:36.754Z,2.16
2022-12-18T13:15:48.342Z,2.40
2022-12-18T13:21:21.974Z,2.54
2022-12-18T13:26:29.185Z,2.57
2022-12-18T13:31:42.643Z,2.67
2022-12-18T13:36:47.864Z,2.44
2022-12-18T13:42:32.508Z,1.58
2022-12-18T13:47:39.476Z,0.51
2022-12-18T13:52:45.043Z,-0.30
2022-12-18T13:57:49.742Z,-1.05
2022-12-18T14:02:53.777Z,-1.74
2022-12-18T14:08:07.210Z,-2.49
2022-12-18T14:13:31.127Z,-2.93
2022-12-18T14:19:02.726Z,-3.39
2022-12-18T14:24:23.792Z,-3.47
2022-12-18T14:29:33.136Z,-3.65
2022-12-18T14:34:36.861Z,-3.67
2022-12-18T14:39:41.370Z,-3.76
2022-12-18T14:45:14.294Z,-3.64
2022-12-18T14:50:17.334Z,-3.60
2022-12-18T14:55:23.992Z,-3.72
2022-12-18T15:00:28.875Z,-3.78
2022-12-18T15:05:34.633Z,-3.86
2022-12-18T15:10:49.456Z,-3.66
2022-12-18T15:15:57.792Z,-3.62
2022-12-18T15:21:11.695Z,-3.65
2022-12-18T15:26:19.895Z,-3.64
2022-12-18T15:31:37.204Z,-3.67
2022-12-18T15:37:04.776Z,-3.57
2022-12-18T15:42:53.587Z,-3.82
2022-12-18T15:48:48.426Z,-3.84
2022-12-18T15:53:59.696Z,-3.80
2022-12-18T15:59:04.704Z,-3.82
2022-12-18T16:04:15.001Z,-3.80
2022-12-18T16:09:36.742Z,-3.88
2022-12-18T16:14:47.319Z,-4.01
2022-12-18T16:19:51.785Z,-3.98
2022-12-18T16:25:12.546Z,-4.00
2022-12-18T16:30:37.895Z,-3.94
2022-12-18T16:41:47.514Z,-4.01
2022-12-18T16:46:51.232Z,-4.04
2022-12-18T16:52:13.053Z,-4.04
2022-12-18T16:57:25.331Z,-3.98
2022-12-18T17:02:29.709Z,-3.91
2022-12-18T17:07:33.621Z,-4.03
2022-12-18T17:12:39.453Z,-4.05
2022-12-18T17:17:46.022Z,-3.93
2022-12-18T17:22:49.862Z,-3.82
2022-12-18T17:27:53.721Z,-3.87
2022-12-18T17:32:57.628Z,-3.96
2022-12-18T17:38:01.620Z,-4.13
2022-12-18T17:43:06.291Z,-4.22
2022-12-18T17:48:11.239Z,-4.32
2022-12-18T17:53:15.425Z,-4.39
2022-12-18T17:58:19.091Z,-4.37
2022-12-18T18:03:25.079Z,-4.37
2022-12-18T18:08:32.828Z,-4.43
2022-12-18T18:13:56.534Z,-4.40
2022-12-18T18:19:09.036Z,-4.51
2022-12-18T18:24:16.583Z,-4.56
2022-12-18T18:29:26.710Z,-4.54
2022-12-18T18:34:35.795Z,-4.51
2022-12-18T18:39:41.403Z,-4.52
2022-12-18T18:44:49.043Z,-4.52
2022-12-18T18:49:54.102Z,-4.57
2022-12-18T18:55:12.961Z,-4.73
2022-12-18T19:00:19.123Z,-4.90
2022-12-18T19:05:23.475Z,-4.99
2022-12-18T19:10:28.717Z,-5.17
2022-12-18T19:15:34.511Z,-5.24
2022-12-18T19:20:38.741Z,-5.33
2022-12-18T19:25:50.786Z,-5.39
2022-12-18T19:31:08.890Z,-5.47
2022-12-18T19:36:23.676Z,-5.66
2022-12-18T19:41:32.824Z,-5.73
2022-12-18T19:46:40.677Z,-5.74
2022-12-18T19:51:46.501Z,-5.87
2022-12-18T19:56:50.568Z,-6.00
2022-12-18T20:01:54.977Z,-6.10
2022-12-18T20:06:59.044Z,-6.06
2022-12-18T20:12:04.675Z,-6.15
2022-12-18T20:17:08.677Z,-6.27
2022-12-18T20:22:14.164Z,-6.40
2022-12-18T20:27:19.588Z,-6.36
2022-12-18T20:32:23.954Z,-6.48
2022-12-18T20:37:28.036Z,-6.62
2022-12-18T20:42:35.706Z,-6.64
2022-12-18T20:47:40.059Z,-6.64
2022-12-18T20:52:45.494Z,-6.70
2022-12-18T20:57:49.901Z,-6.69
2022-12-18T21:02:54.034Z,-6.57
2022-12-18T21:07:58.299Z,-6.66
2022-12-18T21:13:04.565Z,-6.68
2022-12-18T21:18:10.717Z,-6.72
2022-12-18T21:23:16.270Z,-6.74
2022-12-18T21:28:21.343Z,-6.83
2022-12-18T21:33:24.960Z,-6.84
2022-12-18T21:38:28.779Z,-6.78
2022-12-18T21:44:01.995Z,-6.86
2022-12-18T21:49:08.865Z,-6.99
2022-12-18T21:54:13.026Z,-7.09
2022-12-18T21:59:28.422Z,-7.10
2022-12-18T22:04:32.077Z,-7.10
2022-12-18T22:09:36.962Z,-7.20
2022-12-18T22:14:40.539Z,-7.09
2022-12-18T22:19:44.083Z,-6.98
2022-12-18T22:24:47.653Z,-6.95
2022-12-18T22:30:06.565Z,-6.93
2022-12-18T22:35:15.579Z,-6.92
2022-12-18T22:40:29.637Z,-7.00
2022-12-18T22:45:34.066Z,-7.00
2022-12-18T22:50:41.897Z,-6.98
2022-12-18T22:55:45.625Z,-7.03
2022-12-18T23:00:49.183Z,-7.07
2022-12-18T23:05:52.862Z,-7.00
2022-12-18T23:10:58.423Z,-7.02
2022-12-18T23:16:11.404Z,-6.97
2022-12-18T23:21:20.089Z,-7.03
2022-12-18T23:26:26.013Z,-6.96
2022-12-18T23:31:36.111Z,-6.91
2022-12-18T23:36:43.555Z,-6.97
2022-12-18T23:41:49.847Z,-6.96
2022-12-18T23:46:53.776Z,-6.91
2022-12-18T23:51:57.699Z,-6.85
2022-12-18T23:57:02.292Z,-6.72
